Airfield :
LOGIN :

Register | Disclaimer

   EN    FR    IT 

 










Legend :    VFR   Marginal VFR   IFR   Intensive IFR   Very Intensive IFR
Visi :
Ceiling :
>= 8 km
>= 3000ft
5 to 8 km
1000 to 3000 ft
1500m to 5 km
500 to 1000 ft
800 to 1500m
200 to 500 ft
< 800m
< 200 ft
Symbols :   Thunderstorms  Fog  Heavy snow  Heavy precipitations  Wind > 20 kt
SIGMETs :     Misc.  Thunderstorms  Icing  Turbulence  Mountain Waves  Volcanic Ashes







- Airport Elevation : 39 ft
- IATA code : ANR


EBAW - Anvers / Antwerpen Deurne

CURRENT METAR :
  • 222020Z 33006KT 1300 R11/P2000N R29/P2000N BR BKN003 08/08 Q1028 BECMG 0600 FG

EXPIRED METARs :
  • 221950Z 33006KT 1100 R11/1900N R29/1700N BR BKN002 09/08 Q1028 BECMG 0600 FG
  • 221920Z 32008KT 1800 BR SCT003 09/08 Q1028 BECMG 0800 FG BKN003
  • 221850Z 32008KT 3500 BR FEW004 11/08 Q1027 BECMG 1500 BR BKN004
  • 221820Z 32009KT 6000 NSC 13/08 Q1027 BECMG 1500 BR
  • 221750Z 29008KT CAVOK 15/06 Q1027 NOSIG

TAF TAF EBAW
Valid from the 22 at 21:00 until the 23 at 06:00 UTC


222020Z 2221/2306 29004KT 1200 BR BKN002
PROB40
TEMPO 2221/2301 0600 FG
BECMG 2301/2303 3000 SCT003 BKN008
TEMPO 2303/2306 1200 BKN003
No reported NOTAMs for that airfield.



MET'MAP, your aeronautical weather chart ! - Copyright ORBIFLY December 2007 - Disclaimer

ORBIFLY MET'MAP TEAM :

Programming & Development : Alexandra Zaïnal
Concept & Development : Baudouin d'Aumeries
Co-Development & Prog : Marc-Olivier Méhu
Technical & hardware support : Manuel Goepfert

Contact : metmap@orbifly.com




SOURCES & CREDITS :

   NOAA